sensor_id;sensor_type;location;lat;lon;timestamp;P1;durP1;ratioP1;P2;durP2;ratioP2
46090;SDS011;31826;53.572;10.170;2022-09-09T00:04:41;38.23;;;13.27;;
46090;SDS011;31826;53.572;10.170;2022-09-09T00:15:11;58.93;;;13.33;;
46090;SDS011;31826;53.572;10.170;2022-09-09T00:17:40;40.78;;;12.90;;
46090;SDS011;31826;53.572;10.170;2022-09-09T00:20:14;51.72;;;13.43;;
46090;SDS011;31826;53.572;10.170;2022-09-09T00:23:00;51.35;;;13.30;;
46090;SDS011;31826;53.572;10.170;2022-09-09T00:26:04;45.40;;;12.68;;
46090;SDS011;31826;53.572;10.170;2022-09-09T00:28:52;62.13;;;13.25;;
46090;SDS011;31826;53.572;10.170;2022-09-09T00:31:32;60.22;;;14.18;;
46090;SDS011;31826;53.572;10.170;2022-09-09T00:34:00;46.72;;;13.20;;
46090;SDS011;31826;53.572;10.170;2022-09-09T00:36:49;48.60;;;13.35;;
46090;SDS011;31826;53.572;10.170;2022-09-09T00:39:39;47.17;;;13.15;;
46090;SDS011;31826;53.572;10.170;2022-09-09T00:42:14;41.25;;;13.20;;
46090;SDS011;31826;53.572;10.170;2022-09-09T00:44:46;43.95;;;13.30;;
46090;SDS011;31826;53.572;10.170;2022-09-09T00:47:45;39.25;;;12.88;;
46090;SDS011;31826;53.572;10.170;2022-09-09T00:56:14;54.20;;;14.00;;
46090;SDS011;31826;53.572;10.170;2022-09-09T00:58:52;36.33;;;13.40;;
46090;SDS011;31826;53.572;10.170;2022-09-09T01:01:53;36.57;;;14.10;;
46090;SDS011;31826;53.572;10.170;2022-09-09T01:04:23;39.70;;;13.63;;
46090;SDS011;31826;53.572;10.170;2022-09-09T01:06:59;51.42;;;14.88;;
46090;SDS011;31826;53.572;10.170;2022-09-09T01:12:30;54.38;;;13.60;;
46090;SDS011;31826;53.572;10.170;2022-09-09T01:15:25;54.47;;;15.48;;
46090;SDS011;31826;53.572;10.170;2022-09-09T01:18:05;44.38;;;14.35;;
46090;SDS011;31826;53.572;10.170;2022-09-09T01:26:36;42.33;;;14.17;;
46090;SDS011;31826;53.572;10.170;2022-09-09T01:29:13;35.47;;;13.82;;
46090;SDS011;31826;53.572;10.170;2022-09-09T01:34:21;30.60;;;12.80;;
46090;SDS011;31826;53.572;10.170;2022-09-09T01:36:53;32.95;;;13.38;;
46090;SDS011;31826;53.572;10.170;2022-09-09T01:39:32;34.13;;;12.88;;
46090;SDS011;31826;53.572;10.170;2022-09-09T01:42:00;42.33;;;12.93;;
46090;SDS011;31826;53.572;10.170;2022-09-09T01:44:26;54.42;;;15.25;;
46090;SDS011;31826;53.572;10.170;2022-09-09T01:46:54;66.75;;;15.23;;
46090;SDS011;31826;53.572;10.170;2022-09-09T01:49:20;51.33;;;14.82;;
46090;SDS011;31826;53.572;10.170;2022-09-09T01:51:48;36.27;;;13.53;;
46090;SDS011;31826;53.572;10.170;2022-09-09T01:54:17;38.83;;;13.85;;
46090;SDS011;31826;53.572;10.170;2022-09-09T02:04:36;41.30;;;14.90;;
46090;SDS011;31826;53.572;10.170;2022-09-09T02:07:05;40.83;;;13.85;;
46090;SDS011;31826;53.572;10.170;2022-09-09T02:09:43;36.15;;;14.68;;
46090;SDS011;31826;53.572;10.170;2022-09-09T02:12:16;31.10;;;13.23;;
46090;SDS011;31826;53.572;10.170;2022-09-09T02:14:50;52.25;;;13.90;;
46090;SDS011;31826;53.572;10.170;2022-09-09T02:17:27;27.63;;;12.90;;
46090;SDS011;31826;53.572;10.170;2022-09-09T02:20:02;41.60;;;13.13;;
46090;SDS011;31826;53.572;10.170;2022-09-09T02:22:31;31.38;;;12.75;;
46090;SDS011;31826;53.572;10.170;2022-09-09T02:24:59;29.35;;;11.88;;
46090;SDS011;31826;53.572;10.170;2022-09-09T02:27:25;38.22;;;11.88;;
46090;SDS011;31826;53.572;10.170;2022-09-09T02:29:51;31.02;;;12.63;;
46090;SDS011;31826;53.572;10.170;2022-09-09T02:32:22;45.22;;;12.25;;
46090;SDS011;31826;53.572;10.170;2022-09-09T02:34:57;30.70;;;11.53;;
46090;SDS011;31826;53.572;10.170;2022-09-09T02:37:29;32.78;;;12.75;;
46090;SDS011;31826;53.572;10.170;2022-09-09T02:40:01;29.57;;;11.87;;
46090;SDS011;31826;53.572;10.170;2022-09-09T02:42:28;44.65;;;14.38;;
46090;SDS011;31826;53.572;10.170;2022-09-09T02:44:54;45.58;;;13.93;;
46090;SDS011;31826;53.572;10.170;2022-09-09T02:52:36;35.20;;;13.13;;
46090;SDS011;31826;53.572;10.170;2022-09-09T02:55:12;28.47;;;13.20;;
46090;SDS011;31826;53.572;10.170;2022-09-09T02:58:01;31.85;;;12.55;;
46090;SDS011;31826;53.572;10.170;2022-09-09T03:00:31;30.23;;;12.48;;
46090;SDS011;31826;53.572;10.170;2022-09-09T03:02:57;26.65;;;12.60;;
46090;SDS011;31826;53.572;10.170;2022-09-09T03:05:23;25.58;;;12.18;;
46090;SDS011;31826;53.572;10.170;2022-09-09T03:07:50;26.27;;;11.27;;
46090;SDS011;31826;53.572;10.170;2022-09-09T03:10:16;26.53;;;12.70;;
46090;SDS011;31826;53.572;10.170;2022-09-09T03:12:42;30.75;;;12.23;;
46090;SDS011;31826;53.572;10.170;2022-09-09T03:15:08;25.33;;;12.30;;
46090;SDS011;31826;53.572;10.170;2022-09-09T03:17:34;37.97;;;13.30;;
46090;SDS011;31826;53.572;10.170;2022-09-09T03:20:01;27.90;;;13.32;;
46090;SDS011;31826;53.572;10.170;2022-09-09T03:22:28;33.75;;;13.70;;
46090;SDS011;31826;53.572;10.170;2022-09-09T03:24:53;29.15;;;12.43;;
46090;SDS011;31826;53.572;10.170;2022-09-09T03:27:19;24.83;;;11.93;;
46090;SDS011;31826;53.572;10.170;2022-09-09T03:29:45;35.55;;;14.23;;
46090;SDS011;31826;53.572;10.170;2022-09-09T03:32:12;26.02;;;12.50;;
46090;SDS011;31826;53.572;10.170;2022-09-09T03:34:38;26.63;;;12.70;;
46090;SDS011;31826;53.572;10.170;2022-09-09T03:37:07;33.47;;;13.05;;
46090;SDS011;31826;53.572;10.170;2022-09-09T03:39:33;30.63;;;12.77;;
46090;SDS011;31826;53.572;10.170;2022-09-09T03:41:58;32.30;;;13.50;;
46090;SDS011;31826;53.572;10.170;2022-09-09T03:44:24;41.75;;;15.00;;
46090;SDS011;31826;53.572;10.170;2022-09-09T03:46:50;35.20;;;13.60;;
46090;SDS011;31826;53.572;10.170;2022-09-09T03:49:15;33.85;;;13.43;;
46090;SDS011;31826;53.572;10.170;2022-09-09T03:51:41;31.02;;;12.20;;
46090;SDS011;31826;53.572;10.170;2022-09-09T03:54:07;35.00;;;14.10;;
46090;SDS011;31826;53.572;10.170;2022-09-09T03:56:33;40.42;;;13.18;;
46090;SDS011;31826;53.572;10.170;2022-09-09T03:59:00;25.50;;;11.68;;
46090;SDS011;31826;53.572;10.170;2022-09-09T04:01:26;49.95;;;13.00;;
46090;SDS011;31826;53.572;10.170;2022-09-09T04:03:53;31.23;;;12.32;;
46090;SDS011;31826;53.572;10.170;2022-09-09T04:06:20;27.60;;;12.48;;
46090;SDS011;31826;53.572;10.170;2022-09-09T04:08:46;39.20;;;12.75;;
46090;SDS011;31826;53.572;10.170;2022-09-09T04:11:15;37.45;;;13.73;;
46090;SDS011;31826;53.572;10.170;2022-09-09T04:13:41;28.73;;;12.90;;
46090;SDS011;31826;53.572;10.170;2022-09-09T04:16:07;32.90;;;12.70;;
46090;SDS011;31826;53.572;10.170;2022-09-09T04:18:35;40.42;;;12.93;;
46090;SDS011;31826;53.572;10.170;2022-09-09T04:21:01;30.47;;;13.10;;
46090;SDS011;31826;53.572;10.170;2022-09-09T04:23:28;27.20;;;12.85;;
46090;SDS011;31826;53.572;10.170;2022-09-09T04:25:55;34.97;;;12.95;;
46090;SDS011;31826;53.572;10.170;2022-09-09T04:28:22;32.40;;;12.33;;
46090;SDS011;31826;53.572;10.170;2022-09-09T04:30:49;22.17;;;11.73;;
46090;SDS011;31826;53.572;10.170;2022-09-09T04:33:16;26.70;;;12.73;;
46090;SDS011;31826;53.572;10.170;2022-09-09T04:35:45;23.50;;;11.32;;
46090;SDS011;31826;53.572;10.170;2022-09-09T04:38:15;24.98;;;12.27;;
46090;SDS011;31826;53.572;10.170;2022-09-09T04:40:48;26.73;;;12.38;;
46090;SDS011;31826;53.572;10.170;2022-09-09T04:43:16;27.48;;;12.18;;
46090;SDS011;31826;53.572;10.170;2022-09-09T04:45:44;26.58;;;12.20;;
46090;SDS011;31826;53.572;10.170;2022-09-09T04:48:13;25.70;;;11.65;;
46090;SDS011;31826;53.572;10.170;2022-09-09T04:50:39;26.27;;;13.07;;
46090;SDS011;31826;53.572;10.170;2022-09-09T04:53:08;25.13;;;12.63;;
46090;SDS011;31826;53.572;10.170;2022-09-09T04:55:33;30.03;;;12.90;;
46090;SDS011;31826;53.572;10.170;2022-09-09T04:58:06;24.17;;;11.70;;
46090;SDS011;31826;53.572;10.170;2022-09-09T05:00:33;24.30;;;11.63;;
46090;SDS011;31826;53.572;10.170;2022-09-09T05:03:04;25.73;;;12.57;;
46090;SDS011;31826;53.572;10.170;2022-09-09T05:05:31;23.73;;;11.90;;
46090;SDS011;31826;53.572;10.170;2022-09-09T05:08:04;21.77;;;11.32;;
46090;SDS011;31826;53.572;10.170;2022-09-09T05:10:31;22.13;;;11.33;;
46090;SDS011;31826;53.572;10.170;2022-09-09T05:12:57;21.30;;;10.18;;
46090;SDS011;31826;53.572;10.170;2022-09-09T05:15:23;22.77;;;10.67;;
46090;SDS011;31826;53.572;10.170;2022-09-09T05:17:49;18.33;;;9.73;;
46090;SDS011;31826;53.572;10.170;2022-09-09T05:20:16;19.20;;;9.57;;
46090;SDS011;31826;53.572;10.170;2022-09-09T05:22:42;19.43;;;9.33;;
46090;SDS011;31826;53.572;10.170;2022-09-09T05:25:07;18.37;;;9.47;;
46090;SDS011;31826;53.572;10.170;2022-09-09T05:27:33;21.10;;;9.57;;
46090;SDS011;31826;53.572;10.170;2022-09-09T05:29:59;20.48;;;9.70;;
46090;SDS011;31826;53.572;10.170;2022-09-09T05:32:25;18.77;;;9.63;;
46090;SDS011;31826;53.572;10.170;2022-09-09T05:34:51;21.50;;;9.80;;
46090;SDS011;31826;53.572;10.170;2022-09-09T05:37:17;22.35;;;9.52;;
46090;SDS011;31826;53.572;10.170;2022-09-09T05:39:43;23.15;;;10.52;;
46090;SDS011;31826;53.572;10.170;2022-09-09T05:42:09;21.38;;;10.00;;
46090;SDS011;31826;53.572;10.170;2022-09-09T05:44:35;22.17;;;9.85;;
46090;SDS011;31826;53.572;10.170;2022-09-09T05:47:00;20.60;;;9.95;;
46090;SDS011;31826;53.572;10.170;2022-09-09T05:49:26;20.65;;;10.63;;
46090;SDS011;31826;53.572;10.170;2022-09-09T05:51:52;19.42;;;9.60;;
46090;SDS011;31826;53.572;10.170;2022-09-09T05:54:18;19.65;;;9.32;;
46090;SDS011;31826;53.572;10.170;2022-09-09T05:56:44;22.40;;;9.48;;
46090;SDS011;31826;53.572;10.170;2022-09-09T05:59:10;16.90;;;8.67;;
46090;SDS011;31826;53.572;10.170;2022-09-09T06:01:37;17.50;;;8.83;;
46090;SDS011;31826;53.572;10.170;2022-09-09T06:04:06;16.08;;;8.40;;
46090;SDS011;31826;53.572;10.170;2022-09-09T06:06:34;17.52;;;8.07;;
46090;SDS011;31826;53.572;10.170;2022-09-09T06:09:02;16.80;;;8.57;;
46090;SDS011;31826;53.572;10.170;2022-09-09T06:11:31;14.98;;;7.60;;
46090;SDS011;31826;53.572;10.170;2022-09-09T06:13:57;15.40;;;7.32;;
46090;SDS011;31826;53.572;10.170;2022-09-09T06:16:25;14.88;;;8.30;;
46090;SDS011;31826;53.572;10.170;2022-09-09T06:18:55;15.20;;;7.65;;
46090;SDS011;31826;53.572;10.170;2022-09-09T06:21:30;14.45;;;7.03;;
46090;SDS011;31826;53.572;10.170;2022-09-09T06:23:57;14.32;;;6.60;;
46090;SDS011;31826;53.572;10.170;2022-09-09T06:26:30;14.10;;;6.90;;
46090;SDS011;31826;53.572;10.170;2022-09-09T06:28:58;12.17;;;6.03;;
46090;SDS011;31826;53.572;10.170;2022-09-09T06:31:25;13.50;;;6.43;;
46090;SDS011;31826;53.572;10.170;2022-09-09T06:33:55;11.75;;;6.00;;
46090;SDS011;31826;53.572;10.170;2022-09-09T06:36:22;11.00;;;5.57;;
46090;SDS011;31826;53.572;10.170;2022-09-09T06:38:50;11.90;;;5.40;;
46090;SDS011;31826;53.572;10.170;2022-09-09T06:41:17;9.35;;;5.00;;
46090;SDS011;31826;53.572;10.170;2022-09-09T06:43:44;11.38;;;4.88;;
46090;SDS011;31826;53.572;10.170;2022-09-09T06:46:11;11.98;;;6.10;;
46090;SDS011;31826;53.572;10.170;2022-09-09T06:48:39;10.60;;;5.07;;
46090;SDS011;31826;53.572;10.170;2022-09-09T06:51:13;11.93;;;5.20;;
46090;SDS011;31826;53.572;10.170;2022-09-09T06:53:51;11.00;;;5.35;;
46090;SDS011;31826;53.572;10.170;2022-09-09T06:56:20;9.52;;;4.85;;
46090;SDS011;31826;53.572;10.170;2022-09-09T06:58:48;10.47;;;4.83;;
46090;SDS011;31826;53.572;10.170;2022-09-09T07:01:16;9.88;;;5.03;;
46090;SDS011;31826;53.572;10.170;2022-09-09T07:03:45;10.57;;;4.60;;
46090;SDS011;31826;53.572;10.170;2022-09-09T07:06:20;8.88;;;4.53;;
46090;SDS011;31826;53.572;10.170;2022-09-09T07:08:51;10.27;;;4.53;;
46090;SDS011;31826;53.572;10.170;2022-09-09T07:11:18;9.60;;;4.20;;
46090;SDS011;31826;53.572;10.170;2022-09-09T07:13:45;7.38;;;3.63;;
46090;SDS011;31826;53.572;10.170;2022-09-09T07:16:15;8.02;;;4.07;;
46090;SDS011;31826;53.572;10.170;2022-09-09T07:18:42;9.27;;;3.88;;
46090;SDS011;31826;53.572;10.170;2022-09-09T07:21:09;8.80;;;4.00;;
46090;SDS011;31826;53.572;10.170;2022-09-09T07:23:39;8.07;;;3.75;;
46090;SDS011;31826;53.572;10.170;2022-09-09T07:26:13;8.68;;;4.10;;
46090;SDS011;31826;53.572;10.170;2022-09-09T07:28:41;10.82;;;4.13;;
46090;SDS011;31826;53.572;10.170;2022-09-09T07:33:41;6.88;;;3.63;;
46090;SDS011;31826;53.572;10.170;2022-09-09T07:36:08;8.93;;;3.90;;
46090;SDS011;31826;53.572;10.170;2022-09-09T07:38:41;8.25;;;3.72;;
46090;SDS011;31826;53.572;10.170;2022-09-09T07:41:10;6.80;;;3.38;;
46090;SDS011;31826;53.572;10.170;2022-09-09T07:43:44;8.37;;;3.30;;
46090;SDS011;31826;53.572;10.170;2022-09-09T07:46:12;8.40;;;3.70;;
46090;SDS011;31826;53.572;10.170;2022-09-09T07:48:39;9.38;;;3.42;;
46090;SDS011;31826;53.572;10.170;2022-09-09T07:51:13;6.63;;;3.33;;
46090;SDS011;31826;53.572;10.170;2022-09-09T07:53:44;7.32;;;3.63;;
46090;SDS011;31826;53.572;10.170;2022-09-09T07:56:11;6.40;;;2.95;;
46090;SDS011;31826;53.572;10.170;2022-09-09T07:58:45;6.82;;;3.47;;
46090;SDS011;31826;53.572;10.170;2022-09-09T08:01:13;7.43;;;3.50;;
46090;SDS011;31826;53.572;10.170;2022-09-09T08:03:41;8.70;;;3.30;;
46090;SDS011;31826;53.572;10.170;2022-09-09T08:06:08;6.50;;;2.90;;
46090;SDS011;31826;53.572;10.170;2022-09-09T08:08:35;7.88;;;3.10;;
46090;SDS011;31826;53.572;10.170;2022-09-09T08:11:02;6.75;;;2.63;;
46090;SDS011;31826;53.572;10.170;2022-09-09T08:13:29;5.88;;;2.90;;
46090;SDS011;31826;53.572;10.170;2022-09-09T08:16:03;7.43;;;2.55;;
46090;SDS011;31826;53.572;10.170;2022-09-09T08:18:29;7.72;;;2.60;;
46090;SDS011;31826;53.572;10.170;2022-09-09T08:20:55;8.30;;;2.63;;
46090;SDS011;31826;53.572;10.170;2022-09-09T08:23:21;8.68;;;2.80;;
46090;SDS011;31826;53.572;10.170;2022-09-09T08:25:46;6.75;;;2.80;;
46090;SDS011;31826;53.572;10.170;2022-09-09T08:28:13;8.15;;;3.05;;
46090;SDS011;31826;53.572;10.170;2022-09-09T08:30:39;7.93;;;2.80;;
46090;SDS011;31826;53.572;10.170;2022-09-09T08:33:05;7.00;;;3.00;;
46090;SDS011;31826;53.572;10.170;2022-09-09T08:35:30;7.20;;;2.70;;
46090;SDS011;31826;53.572;10.170;2022-09-09T08:37:57;9.18;;;2.55;;
46090;SDS011;31826;53.572;10.170;2022-09-09T08:40:25;6.90;;;2.80;;
46090;SDS011;31826;53.572;10.170;2022-09-09T08:42:57;5.30;;;2.30;;
46090;SDS011;31826;53.572;10.170;2022-09-09T08:45:29;6.47;;;2.30;;
46090;SDS011;31826;53.572;10.170;2022-09-09T08:50:33;5.30;;;2.13;;
46090;SDS011;31826;53.572;10.170;2022-09-09T08:55:58;4.78;;;2.35;;
46090;SDS011;31826;53.572;10.170;2022-09-09T08:58:27;5.25;;;2.20;;
46090;SDS011;31826;53.572;10.170;2022-09-09T09:07:05;6.68;;;2.30;;
46090;SDS011;31826;53.572;10.170;2022-09-09T09:12:24;6.07;;;2.10;;
46090;SDS011;31826;53.572;10.170;2022-09-09T09:14:54;7.18;;;2.20;;
46090;SDS011;31826;53.572;10.170;2022-09-09T09:17:23;5.20;;;1.90;;
46090;SDS011;31826;53.572;10.170;2022-09-09T09:19:52;4.47;;;1.80;;
46090;SDS011;31826;53.572;10.170;2022-09-09T09:25:00;3.53;;;1.80;;
46090;SDS011;31826;53.572;10.170;2022-09-09T09:27:36;4.95;;;1.90;;
46090;SDS011;31826;53.572;10.170;2022-09-09T09:30:19;3.60;;;1.98;;
46090;SDS011;31826;53.572;10.170;2022-09-09T09:33:32;4.65;;;2.10;;
46090;SDS011;31826;53.572;10.170;2022-09-09T09:35:40;4.70;;;1.80;;
46090;SDS011;31826;53.572;10.170;2022-09-09T09:38:16;4.60;;;1.80;;
46090;SDS011;31826;53.572;10.170;2022-09-09T09:40:51;3.53;;;1.53;;
46090;SDS011;31826;53.572;10.170;2022-09-09T09:45:56;3.55;;;1.65;;
46090;SDS011;31826;53.572;10.170;2022-09-09T09:48:22;3.92;;;1.60;;
46090;SDS011;31826;53.572;10.170;2022-09-09T09:50:53;3.95;;;1.58;;
46090;SDS011;31826;53.572;10.170;2022-09-09T09:53:26;4.05;;;1.45;;
46090;SDS011;31826;53.572;10.170;2022-09-09T09:56:07;4.53;;;1.40;;
46090;SDS011;31826;53.572;10.170;2022-09-09T10:04:14;2.35;;;1.40;;
46090;SDS011;31826;53.572;10.170;2022-09-09T10:06:43;5.00;;;1.60;;
46090;SDS011;31826;53.572;10.170;2022-09-09T10:09:28;3.27;;;1.43;;
46090;SDS011;31826;53.572;10.170;2022-09-09T10:18:17;3.42;;;1.58;;
46090;SDS011;31826;53.572;10.170;2022-09-09T10:22:01;4.07;;;1.40;;
46090;SDS011;31826;53.572;10.170;2022-09-09T10:40:46;1.77;;;1.07;;
46090;SDS011;31826;53.572;10.170;2022-09-09T10:43:26;2.53;;;1.02;;
46090;SDS011;31826;53.572;10.170;2022-09-09T10:57:09;2.70;;;1.23;;
46090;SDS011;31826;53.572;10.170;2022-09-09T10:59:53;3.80;;;1.55;;
46090;SDS011;31826;53.572;10.170;2022-09-09T11:02:27;1.90;;;1.10;;
46090;SDS011;31826;53.572;10.170;2022-09-09T11:04:55;1.85;;;1.13;;
46090;SDS011;31826;53.572;10.170;2022-09-09T11:07:33;3.55;;;1.30;;
46090;SDS011;31826;53.572;10.170;2022-09-09T11:10:23;5.25;;;1.45;;
46090;SDS011;31826;53.572;10.170;2022-09-09T11:12:54;2.90;;;1.40;;
46090;SDS011;31826;53.572;10.170;2022-09-09T11:15:31;2.22;;;1.20;;
46090;SDS011;31826;53.572;10.170;2022-09-09T11:18:05;2.30;;;1.20;;
46090;SDS011;31826;53.572;10.170;2022-09-09T11:20:38;3.33;;;1.30;;
46090;SDS011;31826;53.572;10.170;2022-09-09T11:23:12;4.22;;;1.38;;
46090;SDS011;31826;53.572;10.170;2022-09-09T11:25:43;2.40;;;1.08;;
46090;SDS011;31826;53.572;10.170;2022-09-09T11:34:19;2.00;;;1.10;;
46090;SDS011;31826;53.572;10.170;2022-09-09T11:37:00;1.77;;;0.98;;
46090;SDS011;31826;53.572;10.170;2022-09-09T11:42:17;3.65;;;1.20;;
46090;SDS011;31826;53.572;10.170;2022-09-09T11:44:45;2.17;;;1.23;;
46090;SDS011;31826;53.572;10.170;2022-09-09T11:49:54;3.95;;;1.27;;
46090;SDS011;31826;53.572;10.170;2022-09-09T11:54:48;3.33;;;1.25;;
46090;SDS011;31826;53.572;10.170;2022-09-09T12:00:33;3.55;;;1.35;;
46090;SDS011;31826;53.572;10.170;2022-09-09T12:03:49;3.72;;;1.20;;
46090;SDS011;31826;53.572;10.170;2022-09-09T12:08:46;2.13;;;1.20;;
46090;SDS011;31826;53.572;10.170;2022-09-09T12:11:27;3.13;;;1.30;;
46090;SDS011;31826;53.572;10.170;2022-09-09T12:13:55;3.85;;;1.20;;
46090;SDS011;31826;53.572;10.170;2022-09-09T12:16:29;3.05;;;1.30;;
46090;SDS011;31826;53.572;10.170;2022-09-09T12:19:13;3.40;;;1.27;;
46090;SDS011;31826;53.572;10.170;2022-09-09T12:21:51;2.17;;;1.30;;
46090;SDS011;31826;53.572;10.170;2022-09-09T12:24:32;5.05;;;1.25;;
46090;SDS011;31826;53.572;10.170;2022-09-09T12:27:15;2.55;;;1.50;;
46090;SDS011;31826;53.572;10.170;2022-09-09T12:29:50;3.17;;;1.40;;
46090;SDS011;31826;53.572;10.170;2022-09-09T12:32:39;3.28;;;1.40;;
46090;SDS011;31826;53.572;10.170;2022-09-09T12:35:12;3.58;;;1.60;;
46090;SDS011;31826;53.572;10.170;2022-09-09T12:38:00;3.83;;;1.65;;
46090;SDS011;31826;53.572;10.170;2022-09-09T12:40:32;4.05;;;1.58;;
46090;SDS011;31826;53.572;10.170;2022-09-09T12:43:14;3.43;;;1.57;;
46090;SDS011;31826;53.572;10.170;2022-09-09T12:45:46;2.47;;;1.30;;
46090;SDS011;31826;53.572;10.170;2022-09-09T12:48:15;3.38;;;1.63;;
46090;SDS011;31826;53.572;10.170;2022-09-09T12:50:45;3.63;;;1.77;;
46090;SDS011;31826;53.572;10.170;2022-09-09T12:53:23;5.40;;;1.80;;
46090;SDS011;31826;53.572;10.170;2022-09-09T12:55:59;3.83;;;1.70;;
46090;SDS011;31826;53.572;10.170;2022-09-09T12:58:32;6.35;;;1.70;;
46090;SDS011;31826;53.572;10.170;2022-09-09T13:00:58;4.20;;;2.20;;
46090;SDS011;31826;53.572;10.170;2022-09-09T13:03:25;3.00;;;1.80;;
46090;SDS011;31826;53.572;10.170;2022-09-09T13:05:52;4.90;;;1.83;;
46090;SDS011;31826;53.572;10.170;2022-09-09T13:08:23;7.15;;;1.83;;
46090;SDS011;31826;53.572;10.170;2022-09-09T13:10:54;4.65;;;1.77;;
46090;SDS011;31826;53.572;10.170;2022-09-09T13:15:56;2.92;;;1.70;;
46090;SDS011;31826;53.572;10.170;2022-09-09T13:18:28;3.03;;;1.70;;
46090;SDS011;31826;53.572;10.170;2022-09-09T13:20:56;3.70;;;1.80;;
46090;SDS011;31826;53.572;10.170;2022-09-09T13:23:25;5.40;;;2.10;;
46090;SDS011;31826;53.572;10.170;2022-09-09T13:26:00;6.03;;;2.00;;
46090;SDS011;31826;53.572;10.170;2022-09-09T13:28:29;4.90;;;2.00;;
46090;SDS011;31826;53.572;10.170;2022-09-09T13:30:59;4.57;;;1.80;;
46090;SDS011;31826;53.572;10.170;2022-09-09T13:33:34;3.92;;;1.70;;
46090;SDS011;31826;53.572;10.170;2022-09-09T13:36:06;5.00;;;1.87;;
46090;SDS011;31826;53.572;10.170;2022-09-09T13:38:38;2.58;;;1.70;;
46090;SDS011;31826;53.572;10.170;2022-09-09T13:41:46;4.78;;;2.10;;
46090;SDS011;31826;53.572;10.170;2022-09-09T13:44:27;2.85;;;1.83;;
46090;SDS011;31826;53.572;10.170;2022-09-09T13:49:28;4.75;;;1.90;;
46090;SDS011;31826;53.572;10.170;2022-09-09T13:52:05;3.30;;;1.90;;
46090;SDS011;31826;53.572;10.170;2022-09-09T13:54:35;3.17;;;1.75;;
46090;SDS011;31826;53.572;10.170;2022-09-09T13:57:00;3.15;;;1.60;;
46090;SDS011;31826;53.572;10.170;2022-09-09T13:59:26;5.25;;;1.90;;
46090;SDS011;31826;53.572;10.170;2022-09-09T14:01:52;2.78;;;1.60;;
46090;SDS011;31826;53.572;10.170;2022-09-09T14:04:18;4.68;;;1.60;;
46090;SDS011;31826;53.572;10.170;2022-09-09T14:06:46;3.90;;;1.73;;
46090;SDS011;31826;53.572;10.170;2022-09-09T14:09:13;3.97;;;1.77;;
46090;SDS011;31826;53.572;10.170;2022-09-09T14:11:40;4.20;;;1.60;;
46090;SDS011;31826;53.572;10.170;2022-09-09T14:14:07;4.00;;;1.70;;
46090;SDS011;31826;53.572;10.170;2022-09-09T14:16:33;2.93;;;1.77;;
46090;SDS011;31826;53.572;10.170;2022-09-09T14:18:59;2.90;;;1.65;;
46090;SDS011;31826;53.572;10.170;2022-09-09T14:21:27;4.43;;;1.63;;
46090;SDS011;31826;53.572;10.170;2022-09-09T14:23:53;4.77;;;1.57;;
46090;SDS011;31826;53.572;10.170;2022-09-09T14:26:20;4.45;;;1.58;;
46090;SDS011;31826;53.572;10.170;2022-09-09T14:28:46;7.95;;;1.83;;
46090;SDS011;31826;53.572;10.170;2022-09-09T14:31:13;5.20;;;1.80;;
46090;SDS011;31826;53.572;10.170;2022-09-09T14:33:39;4.40;;;1.83;;
46090;SDS011;31826;53.572;10.170;2022-09-09T14:36:05;5.72;;;1.70;;
46090;SDS011;31826;53.572;10.170;2022-09-09T14:38:34;4.57;;;1.83;;
46090;SDS011;31826;53.572;10.170;2022-09-09T14:41:11;3.22;;;1.70;;
46090;SDS011;31826;53.572;10.170;2022-09-09T14:43:41;4.45;;;1.95;;
46090;SDS011;31826;53.572;10.170;2022-09-09T14:46:08;5.05;;;2.00;;
46090;SDS011;31826;53.572;10.170;2022-09-09T14:48:36;5.40;;;2.22;;
46090;SDS011;31826;53.572;10.170;2022-09-09T14:51:09;4.38;;;1.77;;
46090;SDS011;31826;53.572;10.170;2022-09-09T14:53:40;6.85;;;2.03;;
46090;SDS011;31826;53.572;10.170;2022-09-09T14:56:07;5.07;;;1.90;;
46090;SDS011;31826;53.572;10.170;2022-09-09T14:58:35;4.20;;;2.10;;
46090;SDS011;31826;53.572;10.170;2022-09-09T15:01:10;6.47;;;2.15;;
46090;SDS011;31826;53.572;10.170;2022-09-09T15:03:38;5.93;;;2.78;;
46090;SDS011;31826;53.572;10.170;2022-09-09T15:06:08;5.30;;;1.85;;
46090;SDS011;31826;53.572;10.170;2022-09-09T15:08:36;6.27;;;2.70;;
46090;SDS011;31826;53.572;10.170;2022-09-09T15:11:03;3.13;;;1.52;;
46090;SDS011;31826;53.572;10.170;2022-09-09T15:13:32;3.75;;;1.55;;
46090;SDS011;31826;53.572;10.170;2022-09-09T15:18:31;4.97;;;1.80;;
46090;SDS011;31826;53.572;10.170;2022-09-09T15:20:58;6.03;;;2.25;;
46090;SDS011;31826;53.572;10.170;2022-09-09T15:23:28;4.20;;;2.10;;
46090;SDS011;31826;53.572;10.170;2022-09-09T15:25:56;5.00;;;2.15;;
46090;SDS011;31826;53.572;10.170;2022-09-09T15:28:21;4.28;;;1.90;;
46090;SDS011;31826;53.572;10.170;2022-09-09T15:30:48;5.10;;;1.73;;
46090;SDS011;31826;53.572;10.170;2022-09-09T15:33:16;4.65;;;1.80;;
46090;SDS011;31826;53.572;10.170;2022-09-09T15:35:42;4.65;;;1.80;;
46090;SDS011;31826;53.572;10.170;2022-09-09T15:38:08;6.03;;;2.27;;
46090;SDS011;31826;53.572;10.170;2022-09-09T15:40:34;4.35;;;1.75;;
46090;SDS011;31826;53.572;10.170;2022-09-09T15:43:00;4.68;;;1.90;;
46090;SDS011;31826;53.572;10.170;2022-09-09T15:45:26;5.18;;;1.98;;
46090;SDS011;31826;53.572;10.170;2022-09-09T15:47:57;5.75;;;2.15;;
46090;SDS011;31826;53.572;10.170;2022-09-09T15:50:23;6.00;;;2.20;;
46090;SDS011;31826;53.572;10.170;2022-09-09T15:52:48;5.80;;;2.40;;
46090;SDS011;31826;53.572;10.170;2022-09-09T15:55:14;6.17;;;2.37;;
46090;SDS011;31826;53.572;10.170;2022-09-09T15:57:40;5.82;;;2.00;;
46090;SDS011;31826;53.572;10.170;2022-09-09T16:00:06;6.15;;;2.67;;
46090;SDS011;31826;53.572;10.170;2022-09-09T16:02:32;6.10;;;2.63;;
46090;SDS011;31826;53.572;10.170;2022-09-09T16:04:58;4.85;;;2.35;;
46090;SDS011;31826;53.572;10.170;2022-09-09T16:07:24;6.13;;;2.70;;
46090;SDS011;31826;53.572;10.170;2022-09-09T16:09:49;6.07;;;2.67;;
46090;SDS011;31826;53.572;10.170;2022-09-09T16:12:17;8.77;;;3.17;;
46090;SDS011;31826;53.572;10.170;2022-09-09T16:14:43;6.90;;;2.40;;
46090;SDS011;31826;53.572;10.170;2022-09-09T16:17:10;5.75;;;2.53;;
46090;SDS011;31826;53.572;10.170;2022-09-09T16:19:36;8.68;;;2.47;;
46090;SDS011;31826;53.572;10.170;2022-09-09T16:22:03;4.73;;;2.17;;
46090;SDS011;31826;53.572;10.170;2022-09-09T16:24:29;4.55;;;2.20;;
46090;SDS011;31826;53.572;10.170;2022-09-09T16:26:55;5.00;;;2.10;;
46090;SDS011;31826;53.572;10.170;2022-09-09T16:29:21;3.60;;;1.90;;
46090;SDS011;31826;53.572;10.170;2022-09-09T16:31:48;4.00;;;1.80;;
46090;SDS011;31826;53.572;10.170;2022-09-09T16:34:14;4.07;;;2.15;;
46090;SDS011;31826;53.572;10.170;2022-09-09T16:36:42;4.32;;;1.90;;
46090;SDS011;31826;53.572;10.170;2022-09-09T16:39:10;5.78;;;2.10;;
46090;SDS011;31826;53.572;10.170;2022-09-09T16:41:38;4.50;;;1.80;;
46090;SDS011;31826;53.572;10.170;2022-09-09T16:44:05;3.83;;;1.75;;
46090;SDS011;31826;53.572;10.170;2022-09-09T16:46:34;4.88;;;1.70;;
46090;SDS011;31826;53.572;10.170;2022-09-09T16:49:02;3.00;;;1.50;;
46090;SDS011;31826;53.572;10.170;2022-09-09T16:51:33;3.13;;;1.55;;
46090;SDS011;31826;53.572;10.170;2022-09-09T16:54:02;5.10;;;1.70;;
46090;SDS011;31826;53.572;10.170;2022-09-09T16:56:30;2.67;;;1.63;;